Time;durP1;ratioP1;P1;durP2;ratioP2;P2;SDS_P1;SDS_P2;PMS_P1;PMS_P2;Temp;Humidity;BMP_temperature;BMP_pressure;BME280_temperature;BME280_humidity;BME280_pressure;Samples;Min_cycle;Max_cycle;Signal;HPM_P1;HPM_P2
2022/11/15 00:00:36;;;;;;;18.73;10.57;;;9.40;75.90;;;;;;5013600;28;20065;-83
2022/11/15 00:03:24;;;;;;;19.70;10.93;;;9.40;75.80;;;;;;5013643;28;20054;-84
2022/11/15 00:06:10;;;;;;;19.75;9.88;;;9.40;75.80;;;;;;5013465;28;20504;-83
2022/11/15 00:08:59;;;;;;;20.10;10.77;;;9.40;75.90;;;;;;5013568;28;20057;-82
2022/11/15 00:11:44;;;;;;;18.23;10.90;;;9.40;75.90;;;;;;5013178;28;20253;-83
2022/11/15 00:14:30;;;;;;;19.25;10.82;;;9.40;76.00;;;;;;5013632;28;20056;-83
2022/11/15 00:17:15;;;;;;;18.73;9.90;;;9.30;76.10;;;;;;5013375;28;20061;-83
2022/11/15 00:20:01;;;;;;;18.42;10.65;;;9.20;76.30;;;;;;5012956;28;20057;-83
2022/11/15 00:22:47;;;;;;;19.37;10.33;;;9.20;76.40;;;;;;5013385;28;20076;-83
2022/11/15 00:25:34;;;;;;;17.40;10.50;;;9.10;76.60;;;;;;5013382;28;20268;-82
2022/11/15 00:28:20;;;;;;;19.50;10.35;;;9.10;76.60;;;;;;5012932;28;20128;-83
2022/11/15 00:31:08;;;;;;;19.25;10.40;;;9.00;76.70;;;;;;5013021;28;20049;-83
2022/11/15 00:33:54;;;;;;;17.60;9.77;;;9.00;76.60;;;;;;5013073;28;20056;-83
2022/11/15 00:36:39;;;;;;;18.47;9.47;;;9.00;76.70;;;;;;5013422;28;20149;-83
2022/11/15 00:39:25;;;;;;;18.60;10.88;;;8.90;76.80;;;;;;5030506;28;20260;-83
2022/11/15 00:42:12;;;;;;;19.92;10.98;;;8.90;76.70;;;;;;5013061;28;20058;-83
2022/11/15 00:44:57;;;;;;;20.05;10.98;;;8.90;76.90;;;;;;5013021;28;20103;-83
2022/11/15 00:47:45;;;;;;;22.13;10.90;;;8.80;77.10;;;;;;5012892;28;20141;-83
2022/11/15 00:50:31;;;;;;;21.13;10.97;;;8.80;77.10;;;;;;5012639;28;20087;-83
2022/11/15 00:53:17;;;;;;;17.38;9.18;;;8.70;77.10;;;;;;5012933;28;20276;-83
2022/11/15 00:56:03;;;;;;;21.00;9.63;;;8.60;77.20;;;;;;5012853;28;20463;-83
2022/11/15 00:58:50;;;;;;;19.70;10.90;;;8.60;77.00;;;;;;5012068;28;20045;-83
2022/11/15 01:01:36;;;;;;;20.05;9.82;;;8.60;77.30;;;;;;5030436;28;20054;-83
2022/11/15 01:04:22;;;;;;;20.63;10.27;;;8.60;77.50;;;;;;5012670;28;20050;-83
2022/11/15 01:07:07;;;;;;;23.90;12.50;;;8.60;77.60;;;;;;5012718;28;20304;-83
2022/11/15 01:09:53;;;;;;;21.38;11.18;;;8.60;77.80;;;;;;5012309;28;20053;-84
2022/11/15 01:12:39;;;;;;;23.42;11.90;;;8.60;78.00;;;;;;5012622;28;20050;-83
2022/11/15 01:15:26;;;;;;;22.25;10.50;;;8.60;78.10;;;;;;5012765;28;20057;-84
2022/11/15 01:18:11;;;;;;;24.50;11.03;;;8.50;78.10;;;;;;5030645;28;20057;-83
2022/11/15 01:21:35;;;;;;;20.90;10.27;;;8.50;78.30;;;;;;5013230;28;20309;-83
2022/11/15 01:24:21;;;;;;;22.80;10.30;;;8.50;78.40;;;;;;5012463;28;20471;-82
2022/11/15 01:27:07;;;;;;;22.13;10.07;;;8.40;78.50;;;;;;5012468;28;20056;-82
2022/11/15 01:29:52;;;;;;;22.73;10.68;;;8.40;78.60;;;;;;5012429;28;20049;-83
2022/11/15 01:32:39;;;;;;;23.37;10.53;;;8.40;78.70;;;;;;5012409;28;20511;-83
2022/11/15 01:35:25;;;;;;;22.00;10.80;;;8.40;79.00;;;;;;5012216;28;20281;-83
2022/11/15 01:38:11;;;;;;;22.10;9.57;;;8.40;78.90;;;;;;5012239;28;20045;-83
2022/11/15 01:40:57;;;;;;;23.27;10.90;;;8.40;79.20;;;;;;5012242;28;20137;-82
2022/11/15 01:43:42;;;;;;;21.75;10.45;;;8.40;79.10;;;;;;5012266;28;20050;-83
2022/11/15 01:46:32;;;;;;;21.53;11.30;;;8.30;79.30;;;;;;5012293;28;20049;-83
2022/11/15 01:49:22;;;;;;;22.75;10.40;;;8.40;79.30;;;;;;5011670;28;20663;-83
2022/11/15 01:52:11;;;;;;;24.58;10.40;;;8.40;79.70;;;;;;5012054;28;20077;-83
2022/11/15 01:55:02;;;;;;;21.27;10.48;;;8.40;79.60;;;;;;5011996;28;20046;-83
2022/11/15 01:57:52;;;;;;;23.00;10.88;;;8.40;79.70;;;;;;5011771;28;20057;-83
2022/11/15 02:00:38;;;;;;;23.57;10.80;;;8.40;79.80;;;;;;5011358;28;20046;-83
2022/11/15 02:03:32;;;;;;;24.08;11.82;;;8.40;79.90;;;;;;5012095;28;20308;-83
2022/11/15 02:06:21;;;;;;;22.98;10.88;;;8.40;79.80;;;;;;5011625;28;20061;-83
2022/11/15 02:09:06;;;;;;;24.30;10.50;;;8.40;79.90;;;;;;5012024;28;20053;-83
2022/11/15 02:11:54;;;;;;;20.65;9.98;;;8.40;80.00;;;;;;5014616;28;20054;-83
2022/11/15 02:14:43;;;;;;;22.60;9.90;;;8.40;79.90;;;;;;5015306;28;20138;-83
2022/11/15 02:17:49;;;;;;;24.13;10.45;;;8.40;80.10;;;;;;5018208;28;20249;-82
2022/11/15 02:20:47;;;;;;;23.23;10.10;;;8.40;80.10;;;;;;5014369;28;20107;-83
2022/11/15 02:24:10;;;;;;;19.60;10.07;;;8.40;80.20;;;;;;5014616;28;20132;-82
2022/11/15 02:27:26;;;;;;;22.38;9.80;;;8.40;80.30;;;;;;5032984;28;20053;-83
2022/11/15 02:30:33;;;;;;;25.67;11.07;;;8.40;80.40;;;;;;4997489;28;20085;-83
2022/11/15 02:33:32;;;;;;;26.25;11.32;;;8.50;80.40;;;;;;5015273;28;20280;-83
2022/11/15 02:36:30;;;;;;;22.67;10.55;;;8.50;80.40;;;;;;5014875;28;20377;-83
2022/11/15 02:39:26;;;;;;;23.13;9.90;;;8.50;80.50;;;;;;5014662;28;20060;-83
2022/11/15 02:45:22;;;;;;;24.87;11.23;;;8.50;80.70;;;;;;5014463;28;20072;-83
2022/11/15 02:48:11;;;;;;;24.88;11.05;;;8.50;80.80;;;;;;5015205;28;20281;-82
2022/11/15 02:50:58;;;;;;;23.27;9.80;;;8.50;80.90;;;;;;5014424;28;20046;-83
2022/11/15 02:53:44;;;;;;;25.75;10.88;;;8.50;81.20;;;;;;5014766;28;20057;-82
2022/11/15 02:56:30;;;;;;;28.13;11.63;;;8.50;81.10;;;;;;5014463;28;20042;-82
2022/11/15 02:59:33;;;;;;;28.67;11.63;;;8.50;81.20;;;;;;5014416;28;20621;-83
2022/11/15 03:02:34;;;;;;;27.30;11.45;;;8.60;81.50;;;;;;5014108;28;20277;-83
2022/11/15 03:05:30;;;;;;;23.02;10.90;;;8.60;81.70;;;;;;5014871;28;20046;-83
2022/11/15 03:08:23;;;;;;;25.60;9.95;;;8.60;81.90;;;;;;5014308;28;20531;-83
2022/11/15 03:11:10;;;;;;;28.48;11.18;;;8.60;82.10;;;;;;5014062;28;20057;-82
2022/11/15 03:14:01;;;;;;;30.07;11.27;;;8.60;82.00;;;;;;5014284;28;20133;-83
2022/11/15 03:16:50;;;;;;;23.70;10.75;;;8.60;82.10;;;;;;5014325;28;20268;-83
2022/11/15 03:19:44;;;;;;;29.08;11.30;;;8.60;82.60;;;;;;5013793;28;20053;-82
2022/11/15 03:22:36;;;;;;;26.38;11.20;;;8.60;82.60;;;;;;5013393;28;20088;-83
2022/11/15 03:25:25;;;;;;;28.73;11.30;;;8.60;82.70;;;;;;5014275;28;20050;-82
2022/11/15 03:28:16;;;;;;;32.47;13.10;;;8.60;83.00;;;;;;5013976;28;21070;-83
2022/11/15 03:31:46;;;;;;;30.45;12.18;;;8.60;82.80;;;;;;5013845;28;20657;-83
2022/11/15 03:34:16;;;;;;;30.25;12.05;;;8.60;82.80;;;;;;5013979;28;20060;-82
2022/11/15 03:37:02;;;;;;;27.83;11.90;;;8.60;83.00;;;;;;5014037;28;20054;-83
2022/11/15 03:39:50;;;;;;;26.73;12.38;;;8.60;83.30;;;;;;5013664;28;21154;-83
2022/11/15 03:42:43;;;;;;;28.33;10.60;;;8.70;83.50;;;;;;5013749;28;20049;-82
2022/11/15 03:45:36;;;;;;;28.90;11.63;;;8.70;83.50;;;;;;5031772;28;20292;-83
2022/11/15 03:48:24;;;;;;;25.90;11.43;;;8.70;83.70;;;;;;5014001;28;20069;-82
2022/11/15 03:51:12;;;;;;;27.67;11.75;;;8.80;83.70;;;;;;5013310;28;20131;-82
2022/11/15 03:53:57;;;;;;;31.33;11.77;;;8.80;83.90;;;;;;5013600;28;20053;-82
2022/11/15 03:56:44;;;;;;;24.27;11.83;;;8.80;84.00;;;;;;5013669;28;20089;-82
2022/11/15 03:59:30;;;;;;;27.45;12.75;;;8.80;84.30;;;;;;5013438;28;20250;-82
2022/11/15 04:02:16;;;;;;;29.08;12.63;;;8.80;84.40;;;;;;5013633;28;20080;-82
2022/11/15 04:05:01;;;;;;;28.23;12.65;;;8.90;84.20;;;;;;5013106;28;20046;-82
2022/11/15 04:07:47;;;;;;;29.83;12.68;;;8.90;84.40;;;;;;5013565;28;20185;-82
2022/11/15 04:10:33;;;;;;;32.17;13.93;;;8.90;84.80;;;;;;5013138;28;20108;-82
2022/11/15 04:13:19;;;;;;;35.92;13.90;;;8.90;84.50;;;;;;5013288;28;20289;-82
2022/11/15 04:16:05;;;;;;;29.85;13.32;;;8.90;84.70;;;;;;5013396;28;20113;-82
2022/11/15 04:24:11;;;;;;;37.67;14.98;;;9.00;84.60;;;;;;5013350;28;20104;-82
2022/11/15 04:25:00;;;;;;;30.30;12.83;;;9.00;84.90;;;;;;5012933;28;20480;-82
2022/11/15 04:27:46;;;;;;;32.95;15.15;;;9.00;85.10;;;;;;5013043;28;20698;-82
2022/11/15 04:30:33;;;;;;;31.23;12.85;;;9.00;85.10;;;;;;5013196;28;20060;-82
2022/11/15 04:33:18;;;;;;;30.17;13.05;;;9.00;85.20;;;;;;5030199;28;20069;-82
2022/11/15 04:39:08;;;;;;;32.87;13.90;;;9.10;85.00;;;;;;5012831;28;20062;-82
2022/11/15 04:41:54;;;;;;;31.63;13.82;;;9.10;85.30;;;;;;5012934;28;20479;-81
2022/11/15 04:44:39;;;;;;;31.98;14.27;;;9.20;85.50;;;;;;5012990;28;20053;-82
2022/11/15 04:47:27;;;;;;;34.22;14.40;;;9.20;85.20;;;;;;5012753;28;20491;-82
2022/11/15 04:50:13;;;;;;;38.17;15.75;;;9.20;85.30;;;;;;5012537;28;20054;-81
2022/11/15 04:53:01;;;;;;;35.13;14.53;;;9.20;85.30;;;;;;5030641;28;20057;-81
2022/11/15 04:55:47;;;;;;;31.90;13.93;;;9.20;85.20;;;;;;5030732;28;20261;-81
2022/11/15 04:58:33;;;;;;;33.20;15.60;;;9.20;85.30;;;;;;5012723;28;20383;-81
2022/11/15 05:01:19;;;;;;;38.65;14.88;;;9.30;85.40;;;;;;5012030;28;20045;-82
2022/11/15 05:04:20;;;;;;;40.75;15.13;;;9.30;85.60;;;;;;5012166;28;20496;-82
2022/11/15 05:07:06;;;;;;;39.83;16.47;;;9.40;85.80;;;;;;5011417;28;20077;-81
2022/11/15 05:09:52;;;;;;;36.03;15.77;;;9.40;85.90;;;;;;5010913;28;20258;-82
2022/11/15 05:12:38;;;;;;;33.15;15.52;;;9.40;85.90;;;;;;5010759;28;20069;-82
2022/11/15 05:15:23;;;;;;;35.97;15.93;;;9.40;86.00;;;;;;5010851;28;20050;-81
2022/11/15 05:18:09;;;;;;;35.08;15.25;;;9.50;86.30;;;;;;5010905;28;20519;-81
2022/11/15 05:20:55;;;;;;;40.03;16.70;;;9.50;86.50;;;;;;5011109;28;20065;-82
2022/11/15 05:23:42;;;;;;;33.10;13.90;;;9.50;86.70;;;;;;5012554;28;20264;-81
2022/11/15 05:26:28;;;;;;;30.73;14.55;;;9.50;86.80;;;;;;5012207;28;20138;-81
2022/11/15 05:29:14;;;;;;;33.53;14.85;;;9.60;86.70;;;;;;5012171;28;20197;-81
2022/11/15 05:31:59;;;;;;;31.83;15.55;;;9.60;86.90;;;;;;5030370;28;20060;-81
2022/11/15 05:34:46;;;;;;;29.73;13.90;;;9.60;86.90;;;;;;5012310;28;20049;-81
2022/11/15 05:37:33;;;;;;;23.90;10.63;;;9.70;87.10;;;;;;5012445;28;20397;-81
2022/11/15 05:40:19;;;;;;;29.38;13.18;;;9.70;87.30;;;;;;5011962;28;20772;-81
2022/11/15 05:43:06;;;;;;;30.48;14.45;;;9.70;87.20;;;;;;5030276;28;20076;-81
2022/11/15 05:45:53;;;;;;;29.42;14.27;;;9.70;87.20;;;;;;5013122;28;20065;-81
2022/11/15 05:49:05;;;;;;;27.87;13.90;;;9.80;87.10;;;;;;5034709;28;20089;-81
2022/11/15 05:51:52;;;;;;;30.48;14.55;;;9.80;87.20;;;;;;5015988;28;20415;-81
2022/11/15 05:54:39;;;;;;;28.90;13.38;;;9.80;87.30;;;;;;5015497;28;20219;-81
2022/11/15 05:57:25;;;;;;;28.98;13.60;;;9.80;87.30;;;;;;5015713;28;20196;-81
2022/11/15 06:00:12;;;;;;;28.33;13.77;;;9.90;87.20;;;;;;5015363;28;20547;-81
2022/11/15 06:02:58;;;;;;;30.10;13.77;;;10.00;87.10;;;;;;5015398;28;20112;-82
2022/11/15 06:05:44;;;;;;;30.05;14.63;;;10.00;87.30;;;;;;5015735;28;20280;-81
2022/11/15 06:08:29;;;;;;;28.67;13.55;;;10.00;87.20;;;;;;5015240;28;20561;-81
2022/11/15 06:11:16;;;;;;;34.05;15.77;;;10.00;87.30;;;;;;5015262;28;20057;-81
2022/11/15 06:14:02;;;;;;;30.50;14.55;;;10.00;87.50;;;;;;5014903;28;20467;-81
2022/11/15 06:16:48;;;;;;;31.07;13.40;;;10.10;87.50;;;;;;5015249;28;20488;-81
2022/11/15 06:19:33;;;;;;;28.70;13.85;;;10.10;87.60;;;;;;5014615;28;20257;-81
2022/11/15 06:22:19;;;;;;;28.02;12.73;;;10.20;87.70;;;;;;5015383;28;20054;-81
2022/11/15 06:25:05;;;;;;;33.97;14.98;;;10.20;87.60;;;;;;5014849;28;20123;-81
2022/11/15 06:27:53;;;;;;;30.85;14.63;;;10.20;87.80;;;;;;5014753;28;20056;-81
2022/11/15 06:30:39;;;;;;;29.80;13.43;;;10.20;87.70;;;;;;5032479;28;20524;-81
2022/11/15 06:33:25;;;;;;;30.02;14.02;;;10.30;87.80;;;;;;5014920;28;20364;-81
2022/11/15 06:36:13;;;;;;;27.02;14.38;;;10.30;87.90;;;;;;5015131;28;20061;-81
2022/11/15 06:38:59;;;;;;;30.50;13.93;;;10.30;87.80;;;;;;5014663;28;20056;-81
2022/11/15 06:41:44;;;;;;;27.75;14.52;;;10.40;87.80;;;;;;5014388;28;20064;-81
2022/11/15 06:44:31;;;;;;;30.83;14.73;;;10.40;88.00;;;;;;5032440;28;20054;-81
2022/11/15 06:47:17;;;;;;;29.02;12.88;;;10.40;87.90;;;;;;5014564;28;20248;-81
2022/11/15 06:50:03;;;;;;;30.90;13.48;;;10.40;88.00;;;;;;5014430;28;20100;-81
2022/11/15 06:52:49;;;;;;;27.08;13.20;;;10.50;87.90;;;;;;5014505;28;20155;-81
2022/11/15 06:55:35;;;;;;;28.67;12.45;;;10.50;88.00;;;;;;5014590;28;20054;-81
2022/11/15 06:58:22;;;;;;;25.77;12.47;;;10.50;88.10;;;;;;5013481;28;20139;-81
2022/11/15 07:01:12;;;;;;;29.25;13.52;;;10.50;88.00;;;;;;5014266;28;20256;-81
2022/11/15 07:03:58;;;;;;;25.85;13.63;;;10.60;88.00;;;;;;5013776;28;20049;-81
2022/11/15 07:06:43;;;;;;;26.08;12.82;;;10.60;88.00;;;;;;5014147;28;20141;-81
2022/11/15 07:09:29;;;;;;;27.42;13.05;;;10.60;88.10;;;;;;5013699;28;20061;-81
2022/11/15 07:12:15;;;;;;;26.80;13.20;;;10.70;88.00;;;;;;5032237;28;20401;-81
2022/11/15 07:15:00;;;;;;;24.77;12.82;;;10.70;88.00;;;;;;5032329;28;20355;-81
2022/11/15 07:17:48;;;;;;;24.35;13.50;;;10.70;88.10;;;;;;5013659;28;20052;-79
2022/11/15 07:20:33;;;;;;;26.10;12.70;;;10.70;88.00;;;;;;5014794;28;20123;-79
2022/11/15 07:23:19;;;;;;;23.98;12.40;;;10.70;88.00;;;;;;4992322;28;20061;-80
2022/11/15 07:26:05;;;;;;;23.67;12.20;;;10.80;88.00;;;;;;5028666;28;20057;-79
2022/11/15 07:28:51;;;;;;;24.10;11.95;;;10.80;88.10;;;;;;4993710;28;20286;-79
2022/11/15 07:31:37;;;;;;;22.60;11.65;;;10.80;88.10;;;;;;5032052;28;20054;-79
2022/11/15 07:34:24;;;;;;;24.55;12.38;;;10.80;88.00;;;;;;5012236;28;20053;-79
2022/11/15 07:37:10;;;;;;;21.67;11.45;;;10.80;88.00;;;;;;5029113;28;20049;-80
2022/11/15 07:39:55;;;;;;;22.87;11.33;;;10.90;88.00;;;;;;5016157;28;20050;-80
2022/11/15 07:42:53;;;;;;;22.10;11.43;;;10.90;88.00;;;;;;5044619;28;20287;-81
2022/11/15 07:45:42;;;;;;;21.63;11.95;;;10.90;88.00;;;;;;5016743;28;20045;-81
2022/11/15 07:48:28;;;;;;;22.58;12.02;;;10.90;88.00;;;;;;5031421;28;20053;-81
2022/11/15 07:51:16;;;;;;;20.77;11.02;;;10.90;88.10;;;;;;5030819;28;20053;-78
2022/11/15 07:54:02;;;;;;;22.03;11.00;;;11.00;88.10;;;;;;5051373;28;20060;-78
2022/11/15 07:56:48;;;;;;;20.02;11.68;;;11.00;88.10;;;;;;5017404;28;20849;-82
2022/11/15 07:59:34;;;;;;;22.50;11.57;;;11.00;88.00;;;;;;5012426;28;20049;-81
2022/11/15 08:02:20;;;;;;;22.05;11.23;;;11.00;88.00;;;;;;5000611;28;20129;-81
2022/11/15 08:05:06;;;;;;;20.10;11.27;;;11.00;88.10;;;;;;5027991;28;20065;-81
2022/11/15 08:07:55;;;;;;;20.83;11.30;;;11.10;88.00;;;;;;5008639;28;20440;-82
2022/11/15 08:10:41;;;;;;;25.63;12.00;;;11.10;88.00;;;;;;5042713;28;20264;-81
2022/11/15 08:13:27;;;;;;;22.55;11.95;;;11.10;88.00;;;;;;5029443;28;20050;-82
2022/11/15 08:16:13;;;;;;;22.42;11.45;;;11.10;88.10;;;;;;5011337;28;20180;-81
2022/11/15 08:18:58;;;;;;;23.83;11.32;;;11.10;88.00;;;;;;5017158;28;20046;-81
2022/11/15 08:21:44;;;;;;;21.17;11.30;;;11.10;88.10;;;;;;5030573;28;20052;-81
2022/11/15 08:24:31;;;;;;;20.08;10.77;;;11.10;88.00;;;;;;5013056;28;20277;-81
2022/11/15 08:27:17;;;;;;;20.13;10.70;;;11.10;88.00;;;;;;5009244;28;20086;-81
2022/11/15 08:30:03;;;;;;;20.27;10.20;;;11.10;88.00;;;;;;5011908;28;20048;-81
2022/11/15 08:32:49;;;;;;;18.50;10.43;;;11.20;88.00;;;;;;5028246;28;20132;-81
2022/11/15 08:35:35;;;;;;;19.70;11.50;;;11.20;88.00;;;;;;5027642;28;20056;-81
2022/11/15 08:38:20;;;;;;;19.65;10.85;;;11.30;88.00;;;;;;5012328;28;20739;-80
2022/11/15 08:41:23;;;;;;;18.85;10.48;;;11.30;88.00;;;;;;5014342;28;20111;-81
2022/11/15 08:44:09;;;;;;;19.02;10.02;;;11.30;88.00;;;;;;5007188;28;20043;-81
2022/11/15 08:46:55;;;;;;;20.00;11.48;;;11.30;88.00;;;;;;5025880;28;20129;-80
2022/11/15 08:49:40;;;;;;;19.57;10.63;;;11.30;88.00;;;;;;5015262;28;20045;-81
2022/11/15 08:52:26;;;;;;;20.05;11.32;;;11.30;88.00;;;;;;5030586;28;20296;-81
2022/11/15 08:55:11;;;;;;;20.90;11.40;;;11.40;88.00;;;;;;5028220;28;20908;-81
2022/11/15 08:57:59;;;;;;;22.25;12.23;;;11.40;87.90;;;;;;5012157;28;20054;-81
2022/11/15 09:00:45;;;;;;;20.33;11.07;;;11.40;88.00;;;;;;5012515;28;20310;-81
2022/11/15 09:03:31;;;;;;;20.47;12.97;;;11.40;88.00;;;;;;5030188;28;20060;-81
2022/11/15 09:06:16;;;;;;;19.15;10.63;;;11.50;88.00;;;;;;5029893;28;20344;-80
2022/11/15 09:09:03;;;;;;;20.85;11.98;;;11.50;88.00;;;;;;5010790;28;20805;-79
2022/11/15 09:11:48;;;;;;;21.27;11.40;;;11.50;88.00;;;;;;5018036;28;20042;-80
2022/11/15 09:14:35;;;;;;;19.27;10.63;;;11.50;88.00;;;;;;5030161;28;20057;-81
2022/11/15 09:17:21;;;;;;;21.17;11.30;;;11.50;88.00;;;;;;5017740;28;20045;-79
2022/11/15 09:20:08;;;;;;;21.10;10.88;;;11.50;88.00;;;;;;5029033;28;20770;-79
2022/11/15 09:22:54;;;;;;;19.83;10.38;;;11.50;88.10;;;;;;5009429;28;20053;-79
2022/11/15 09:25:40;;;;;;;21.25;11.38;;;11.60;88.10;;;;;;5011268;28;20054;-80
2022/11/15 09:28:25;;;;;;;22.73;11.60;;;11.60;88.00;;;;;;5021635;28;20054;-81
2022/11/15 09:31:12;;;;;;;20.87;11.67;;;11.60;88.10;;;;;;4992106;28;20051;-82
2022/11/15 09:33:58;;;;;;;23.17;10.75;;;11.70;88.30;;;;;;5003900;28;20405;-81
2022/11/15 09:36:44;;;;;;;18.63;11.57;;;11.70;88.20;;;;;;5013048;28;20072;-82
2022/11/15 09:39:54;;;;;;;21.15;10.93;;;11.70;88.20;;;;;;5029297;28;20046;-81
2022/11/15 09:42:54;;;;;;;20.02;11.13;;;11.70;88.20;;;;;;5008661;28;20054;-81
2022/11/15 09:45:51;;;;;;;18.70;10.07;;;11.70;88.20;;;;;;5025359;28;20057;-83
2022/11/15 09:48:52;;;;;;;24.00;14.60;;;11.70;88.20;;;;;;5038252;28;20280;-79
2022/11/15 09:51:58;;;;;;;19.40;10.82;;;11.70;88.20;;;;;;5017533;28;20050;-81
2022/11/15 09:54:31;;;;;;;19.42;10.05;;;11.70;88.20;;;;;;5017319;28;20140;-80
2022/11/15 09:57:05;;;;;;;20.98;12.57;;;11.80;88.20;;;;;;5012379;28;20046;-85
2022/11/15 09:59:51;;;;;;;21.00;12.37;;;11.90;88.20;;;;;;5046673;28;20136;-82
2022/11/15 10:02:32;;;;;;;16.63;9.52;;;11.90;88.20;;;;;;5021551;28;20329;-82
2022/11/15 10:05:02;;;;;;;17.13;9.07;;;11.90;88.20;;;;;;5028993;28;20053;-82
2022/11/15 10:07:36;;;;;;;16.88;8.50;;;11.90;88.10;;;;;;5010075;28;20062;-79
2022/11/15 10:10:11;;;;;;;16.98;9.88;;;11.90;88.20;;;;;;5039098;28;20133;-81
2022/11/15 10:12:38;;;;;;;16.47;9.47;;;11.90;88.20;;;;;;5012084;28;20050;-82
2022/11/15 10:15:13;;;;;;;16.10;9.70;;;11.90;88.20;;;;;;5010517;28;20281;-81
2022/11/15 10:18:00;;;;;;;15.75;9.73;;;11.90;88.20;;;;;;5029310;28;20164;-81
2022/11/15 10:20:32;;;;;;;14.52;8.82;;;11.90;88.20;;;;;;5025185;28;20050;-80
2022/11/15 10:23:02;;;;;;;13.88;9.00;;;11.90;88.20;;;;;;5010371;28;20046;-81
2022/11/15 10:25:31;;;;;;;15.50;8.97;;;12.00;88.20;;;;;;5009967;28;20508;-82
2022/11/15 10:28:01;;;;;;;15.52;8.93;;;12.00;88.10;;;;;;5010011;28;20265;-82
2022/11/15 10:30:35;;;;;;;17.40;9.15;;;12.00;88.10;;;;;;5010815;28;20058;-82
2022/11/15 10:33:26;;;;;;;15.35;8.32;;;12.00;88.20;;;;;;5014340;28;20042;-82
2022/11/15 10:36:18;;;;;;;15.45;7.80;;;12.00;88.20;;;;;;5041665;28;20046;-83
2022/11/15 10:39:03;;;;;;;14.07;7.43;;;12.10;88.10;;;;;;5018452;28;20558;-81
2022/11/15 10:41:35;;;;;;;12.77;7.72;;;12.10;88.10;;;;;;5014180;28;20301;-81
2022/11/15 10:44:25;;;;;;;14.80;7.32;;;12.10;88.10;;;;;;5014925;28;20054;-81
2022/11/15 10:47:21;;;;;;;12.80;7.07;;;12.10;88.00;;;;;;5021951;28;20087;-81
2022/11/15 10:50:01;;;;;;;12.82;7.07;;;12.10;88.00;;;;;;5009560;28;20064;-81
2022/11/15 10:52:32;;;;;;;13.33;6.90;;;12.20;87.90;;;;;;5010009;28;20055;-81
2022/11/15 10:55:04;;;;;;;11.45;5.93;;;12.20;87.80;;;;;;5009823;28;21057;-81
2022/11/15 10:57:36;;;;;;;11.77;6.30;;;12.20;87.80;;;;;;5018975;28;20062;-81
2022/11/15 11:00:07;;;;;;;11.20;5.95;;;12.20;87.70;;;;;;5009929;28;20054;-81
2022/11/15 11:02:38;;;;;;;11.18;5.55;;;12.30;87.90;;;;;;5011465;28;20058;-81
2022/11/15 11:05:07;;;;;;;9.37;4.67;;;12.30;87.60;;;;;;5023160;28;20121;-81
2022/11/15 11:07:36;;;;;;;7.40;3.78;;;12.40;87.50;;;;;;5014172;28;20360;-81
2022/11/15 11:10:17;;;;;;;8.38;4.03;;;12.50;87.20;;;;;;5014196;28;20490;-81
2022/11/15 11:12:44;;;;;;;10.60;4.78;;;12.50;86.30;;;;;;5013879;28;20060;-77
2022/11/15 11:15:14;;;;;;;17.90;7.88;;;12.50;86.00;;;;;;5031106;28;20050;-77
2022/11/15 11:17:58;;;;;;;14.57;5.97;;;12.60;85.70;;;;;;5029331;28;20441;-79
2022/11/15 11:20:33;;;;;;;10.52;4.57;;;12.70;85.10;;;;;;5028728;28;20281;-82
2022/11/15 11:23:22;;;;;;;8.30;3.45;;;12.70;84.70;;;;;;5028864;28;20054;-84
2022/11/15 11:26:03;;;;;;;6.45;2.70;;;12.80;84.10;;;;;;5030069;28;20049;-82
2022/11/15 11:28:40;;;;;;;6.47;3.15;;;12.80;83.60;;;;;;5009148;28;20129;-78
2022/11/15 11:31:19;;;;;;;8.10;2.83;;;12.80;83.40;;;;;;5009269;28;20058;-79
2022/11/15 11:33:56;;;;;;;4.55;2.10;;;12.80;82.90;;;;;;5017116;28;20253;-79
2022/11/15 11:36:28;;;;;;;7.20;3.38;;;12.90;81.40;;;;;;5014077;28;20042;-82
2022/11/15 11:39:11;;;;;;;5.22;2.70;;;12.90;81.40;;;;;;4997537;28;20053;-77
2022/11/15 11:41:50;;;;;;;6.25;3.05;;;12.90;80.40;;;;;;5013897;28;20050;-83
2022/11/15 11:44:31;;;;;;;5.60;2.17;;;13.00;80.70;;;;;;5013029;28;20830;-79
2022/11/15 11:47:01;;;;;;;6.05;2.20;;;13.00;80.30;;;;;;4997837;28;20642;-80
2022/11/15 11:49:35;;;;;;;6.10;2.13;;;13.00;80.00;;;;;;5031953;28;20050;-82
2022/11/15 11:52:10;;;;;;;5.55;2.47;;;13.00;80.20;;;;;;5013749;28;20085;-87
2022/11/15 11:54:47;;;;;;;6.03;2.58;;;13.00;79.30;;;;;;5029999;28;20512;-79
2022/11/15 11:57:24;;;;;;;5.87;2.40;;;13.00;79.20;;;;;;5030035;28;20603;-86
2022/11/15 12:00:03;;;;;;;7.47;3.15;;;12.90;79.50;;;;;;5030393;28;20277;-82
2022/11/15 12:02:45;;;;;;;6.13;3.15;;;12.90;79.70;;;;;;5013551;28;20046;-85
2022/11/15 12:05:19;;;;;;;6.50;2.58;;;12.90;79.90;;;;;;5013484;28;20054;-76
2022/11/15 12:07:49;;;;;;;6.43;2.58;;;12.90;80.00;;;;;;5031288;28;20098;-80
2022/11/15 12:10:25;;;;;;;6.93;2.87;;;12.90;80.00;;;;;;5019131;28;20054;-81
2022/11/15 12:13:00;;;;;;;6.65;2.70;;;13.00;79.70;;;;;;5030152;28;20376;-80
2022/11/15 12:15:32;;;;;;;6.72;2.88;;;13.00;79.70;;;;;;5010669;28;20058;-81
2022/11/15 12:18:01;;;;;;;9.45;3.55;;;13.00;79.80;;;;;;5011928;28;20057;-80
2022/11/15 12:20:31;;;;;;;6.75;2.90;;;13.00;79.90;;;;;;5010443;28;20049;-81
2022/11/15 12:23:02;;;;;;;7.33;2.50;;;13.00;80.00;;;;;;5029713;28;20052;-86
2022/11/15 12:25:37;;;;;;;7.05;3.20;;;13.10;79.80;;;;;;5046307;28;20285;-83
2022/11/15 12:28:12;;;;;;;7.05;2.55;;;13.10;79.90;;;;;;5015279;28;20388;-81
2022/11/15 12:30:45;;;;;;;5.30;1.98;;;13.10;79.40;;;;;;5015843;28;20571;-81
2022/11/15 12:33:32;;;;;;;7.88;2.55;;;13.20;79.30;;;;;;5013411;28;20052;-81
2022/11/15 12:36:01;;;;;;;5.70;2.03;;;13.30;78.60;;;;;;5013272;28;20061;-81
2022/11/15 12:38:56;;;;;;;7.85;2.45;;;13.30;77.50;;;;;;5021212;28;20265;-82
2022/11/15 12:41:26;;;;;;;6.10;2.20;;;13.30;78.00;;;;;;4991839;28;20133;-82
2022/11/15 12:43:53;;;;;;;5.68;2.35;;;13.30;77.50;;;;;;4993860;28;20046;-83
2022/11/15 12:46:24;;;;;;;4.72;1.80;;;13.30;77.00;;;;;;5012169;28;21003;-81
2022/11/15 12:48:54;;;;;;;4.77;1.60;;;13.30;76.60;;;;;;5029588;28;20054;-81
2022/11/15 12:51:38;;;;;;;5.00;1.83;;;13.30;76.50;;;;;;5024418;28;20302;-82
2022/11/15 12:55:08;;;;;;;6.00;2.15;;;13.30;76.70;;;;;;5024178;28;20060;-81
2022/11/15 12:57:41;;;;;;;5.40;1.83;;;13.30;76.60;;;;;;5012035;28;20058;-81
2022/11/15 13:00:48;;;;;;;5.47;2.10;;;13.30;76.80;;;;;;5027594;28;20162;-82
2022/11/15 13:03:29;;;;;;;5.03;1.70;;;13.30;76.60;;;;;;4999554;28;20091;-82
2022/11/15 13:06:06;;;;;;;6.03;2.08;;;13.30;77.00;;;;;;5031615;28;20332;-82
2022/11/15 13:08:47;;;;;;;5.22;1.65;;;13.30;76.80;;;;;;5024198;28;20060;-82
2022/11/15 13:11:43;;;;;;;4.05;1.70;;;13.30;76.90;;;;;;5027000;28;20058;-82
2022/11/15 13:14:46;;;;;;;5.97;1.67;;;13.40;76.90;;;;;;5007823;28;20109;-82
2022/11/15 13:17:35;;;;;;;4.33;1.27;;;13.40;76.90;;;;;;5006996;28;20091;-82
2022/11/15 13:20:24;;;;;;;4.55;1.48;;;13.50;75.80;;;;;;5008660;28;20345;-82
2022/11/15 13:22:54;;;;;;;4.95;1.67;;;13.50;75.60;;;;;;5024363;28;20049;-83
2022/11/15 13:25:59;;;;;;;4.10;1.42;;;13.40;75.30;;;;;;5007074;28;20049;-83
2022/11/15 13:28:34;;;;;;;4.70;1.50;;;13.50;74.70;;;;;;5017714;28;20133;-82
2022/11/15 13:31:18;;;;;;;5.07;1.33;;;13.40;74.50;;;;;;5012073;28;20054;-82
2022/11/15 13:33:45;;;;;;;4.70;1.25;;;13.40;74.80;;;;;;5028648;28;20293;-83
2022/11/15 13:36:16;;;;;;;4.40;1.40;;;13.40;75.20;;;;;;5028671;28;20056;-82
2022/11/15 13:38:43;;;;;;;5.30;1.42;;;13.40;75.00;;;;;;5030388;28;20052;-82
2022/11/15 13:41:20;;;;;;;3.92;1.20;;;13.40;74.70;;;;;;5012019;28;20053;-82
2022/11/15 13:43:48;;;;;;;3.97;1.27;;;13.50;74.50;;;;;;5027756;28;20054;-82
2022/11/15 13:46:22;;;;;;;3.50;0.80;;;13.50;74.60;;;;;;5011920;28;20278;-82
2022/11/15 13:48:54;;;;;;;5.38;1.10;;;13.50;73.50;;;;;;5011865;28;20073;-83
2022/11/15 13:51:25;;;;;;;2.92;0.73;;;13.50;73.70;;;;;;5012231;28;21168;-80
2022/11/15 13:53:56;;;;;;;3.05;0.70;;;13.50;73.20;;;;;;5005976;28;20101;-81
2022/11/15 13:56:25;;;;;;;2.07;0.50;;;13.50;72.50;;;;;;5033504;28;20052;-81
2022/11/15 13:58:54;;;;;;;3.55;0.82;;;13.50;71.50;;;;;;5042005;28;20257;-80
2022/11/15 14:01:23;;;;;;;3.03;0.90;;;13.40;72.00;;;;;;5011691;28;20050;-79
2022/11/15 14:03:55;;;;;;;4.00;0.55;;;13.40;72.20;;;;;;5010640;28;20058;-81
2022/11/15 14:06:24;;;;;;;3.95;0.75;;;13.40;72.20;;;;;;5011899;28;20105;-82
2022/11/15 14:09:04;;;;;;;2.80;0.60;;;13.40;72.30;;;;;;5014301;28;20046;-83
2022/11/15 14:11:32;;;;;;;3.35;0.77;;;13.40;71.40;;;;;;5041313;28;20336;-84
2022/11/15 14:14:15;;;;;;;2.95;0.70;;;13.40;71.50;;;;;;5040231;28;20046;-84